Upper Saint Regis, New York
Current Conditions -  °F | °C
As of 8:51 PM on Monday 22 Dec 2014 (Local Time) from KSLK Reporting Station
Overcast Overcast  
Wind Chill: 16°   Ceiling: 3000
Heat Index: 23°   Visibility: 8mi
Dew Point: 21°   Wind: 6mph
Humidity: 92%   Direction: 30°NNE
Pressure: 30.16"   Gusts: NA
Location:  44.3663°N, 74.2493°W
Report Text: KSLK 230151Z AUTO 03005KT 8SM OVC030 M05/M06 A3016 RMK AO2 SLP245 T10501061 $
Loading
Personal Weather Stations






























Interactive Weather Map New forecast layout! Learn more

10-Day Weather Forecast

Advertisements
Track Severe Weather on mobile